Time;durP1;ratioP1;P1;durP2;ratioP2;P2;SDS_P1;SDS_P2;PMS_P1;PMS_P2;Temp;Humidity;BMP_temperature;BMP_pressure;BME280_temperature;BME280_humidity;BME280_pressure;Samples;Min_cycle;Max_cycle;Signal;HPM_P1;HPM_P2
2021/09/11 00:01:20;;;;;;;11.00;5.13;;;;;;;;;;5054306;28;20405;-46
2021/09/11 00:03:46;;;;;;;10.13;5.40;;;;;;;;;;5054310;28;20783;-45
2021/09/11 00:06:12;;;;;;;7.57;5.70;;;;;;;;;;5054033;28;20779;-46
2021/09/11 00:08:38;;;;;;;6.50;5.53;;;;;;;;;;5053277;28;20463;-46
2021/09/11 00:11:04;;;;;;;8.37;6.37;;;;;;;;;;5054156;28;20769;-46
2021/09/11 00:13:30;;;;;;;6.83;6.10;;;;;;;;;;5053135;28;20409;-48
2021/09/11 00:15:56;;;;;;;6.23;5.60;;;;;;;;;;5053855;28;20781;-46
2021/09/11 00:18:22;;;;;;;8.90;7.20;;;;;;;;;;5053928;28;20867;-46
2021/09/11 00:20:48;;;;;;;8.07;7.23;;;;;;;;;;5053893;28;20505;-46
2021/09/11 00:23:14;;;;;;;7.93;7.23;;;;;;;;;;5053672;28;20449;-45
2021/09/11 00:25:40;;;;;;;10.33;7.40;;;;;;;;;;5051332;28;20841;-47
2021/09/11 00:28:06;;;;;;;7.53;5.60;;;;;;;;;;5053614;28;20454;-46
2021/09/11 00:30:32;;;;;;;6.20;5.60;;;;;;;;;;5053755;28;20404;-46
2021/09/11 00:32:58;;;;;;;9.30;6.20;;;;;;;;;;5053480;28;20771;-47
2021/09/11 00:35:24;;;;;;;10.90;6.30;;;;;;;;;;5054071;28;20508;-47
2021/09/11 00:37:50;;;;;;;7.23;5.20;;;;;;;;;;5053691;28;20487;-47
2021/09/11 00:40:17;;;;;;;7.10;5.73;;;;;;;;;;5052840;28;20935;-46
2021/09/11 00:42:47;;;;;;;6.30;5.70;;;;;;;;;;5053653;28;20425;-46
2021/09/11 00:45:24;;;;;;;10.67;5.70;;;;;;;;;;5053730;28;20410;-46
2021/09/11 00:47:50;;;;;;;6.00;5.60;;;;;;;;;;5053610;28;20432;-46
2021/09/11 00:50:17;;;;;;;6.80;6.13;;;;;;;;;;5053348;28;20408;-46
2021/09/11 00:52:44;;;;;;;7.20;5.83;;;;;;;;;;5052198;28;20874;-46
2021/09/11 00:55:11;;;;;;;8.57;6.03;;;;;;;;;;5052599;28;20543;-46
2021/09/11 00:57:38;;;;;;;13.93;6.30;;;;;;;;;;5053378;28;20444;-46
2021/09/11 01:00:04;;;;;;;7.83;6.60;;;;;;;;;;5053157;28;20413;-46
2021/09/11 01:02:31;;;;;;;6.03;5.53;;;;;;;;;;5052676;28;20416;-46
2021/09/11 01:04:57;;;;;;;6.60;6.10;;;;;;;;;;5052781;28;20406;-46
2021/09/11 01:07:24;;;;;;;8.50;6.87;;;;;;;;;;5052966;28;20388;-46
2021/09/11 01:09:50;;;;;;;7.47;6.57;;;;;;;;;;5052343;28;21071;-46
2021/09/11 01:12:16;;;;;;;11.27;6.40;;;;;;;;;;5052635;28;20433;-46
2021/09/11 01:14:42;;;;;;;6.93;6.33;;;;;;;;;;5052380;28;20450;-46
2021/09/11 01:17:14;;;;;;;7.67;6.20;;;;;;;;;;5052548;28;20425;-46
2021/09/11 01:19:40;;;;;;;12.10;6.60;;;;;;;;;;5051947;28;20406;-46
2021/09/11 01:22:11;;;;;;;6.77;6.07;;;;;;;;;;5052373;28;20463;-46
2021/09/11 01:24:37;;;;;;;15.27;7.47;;;;;;;;;;5052237;28;20537;-47
2021/09/11 01:27:03;;;;;;;9.93;6.73;;;;;;;;;;5052300;28;20416;-46
2021/09/11 01:29:29;;;;;;;7.50;6.80;;;;;;;;;;5051288;28;20436;-46
2021/09/11 01:31:55;;;;;;;15.33;7.37;;;;;;;;;;5051381;28;20397;-46
2021/09/11 01:34:21;;;;;;;10.90;6.63;;;;;;;;;;5052424;28;20404;-46
2021/09/11 01:36:47;;;;;;;8.20;6.93;;;;;;;;;;5051973;28;20413;-46
2021/09/11 01:39:13;;;;;;;7.80;7.13;;;;;;;;;;5051606;28;20968;-46
2021/09/11 01:41:39;;;;;;;13.83;7.70;;;;;;;;;;5051674;28;20850;-46
2021/09/11 01:44:05;;;;;;;8.10;6.43;;;;;;;;;;5051950;28;20444;-46
2021/09/11 01:46:31;;;;;;;7.50;6.73;;;;;;;;;;5051789;28;20398;-46
2021/09/11 01:48:57;;;;;;;7.50;6.70;;;;;;;;;;5051815;28;20411;-48
2021/09/11 01:51:23;;;;;;;7.97;7.27;;;;;;;;;;5051758;28;20429;-46
2021/09/11 01:53:49;;;;;;;8.40;7.60;;;;;;;;;;5052233;28;20398;-46
2021/09/11 01:56:15;;;;;;;9.43;7.67;;;;;;;;;;5051819;28;21090;-46
2021/09/11 01:58:41;;;;;;;8.63;7.23;;;;;;;;;;5051518;28;20433;-46
2021/09/11 02:01:06;;;;;;;10.50;6.77;;;;;;;;;;5052243;28;20416;-46
2021/09/11 02:03:32;;;;;;;8.83;8.03;;;;;;;;;;5050539;28;20431;-46
2021/09/11 02:05:58;;;;;;;10.33;9.30;;;;;;;;;;5051097;28;20420;-46
2021/09/11 02:08:24;;;;;;;9.33;8.40;;;;;;;;;;5051644;28;20425;-46
2021/09/11 02:10:50;;;;;;;10.67;9.57;;;;;;;;;;5051115;28;20409;-46
2021/09/11 02:13:16;;;;;;;13.17;8.37;;;;;;;;;;5051238;28;20999;-48
2021/09/11 02:15:42;;;;;;;12.10;9.10;;;;;;;;;;5050427;28;21232;-46
2021/09/11 02:18:08;;;;;;;9.70;8.20;;;;;;;;;;5051340;28;20524;-46
2021/09/11 02:20:34;;;;;;;17.73;9.37;;;;;;;;;;5051529;28;20389;-46
2021/09/11 02:23:00;;;;;;;9.80;9.00;;;;;;;;;;5051311;28;20455;-46
2021/09/11 02:25:26;;;;;;;15.93;10.00;;;;;;;;;;5051013;28;20414;-45
2021/09/11 02:27:52;;;;;;;15.30;12.40;;;;;;;;;;5051283;28;20435;-46
2021/09/11 02:30:18;;;;;;;18.00;13.10;;;;;;;;;;5049303;28;20491;-45
2021/09/11 02:32:44;;;;;;;17.57;15.70;;;;;;;;;;5050474;28;20460;-46
2021/09/11 02:35:10;;;;;;;22.77;15.60;;;;;;;;;;5051667;28;20378;-47
2021/09/11 02:37:36;;;;;;;19.17;16.30;;;;;;;;;;5050903;28;20924;-46
2021/09/11 02:40:03;;;;;;;19.27;16.03;;;;;;;;;;5050954;28;20409;-47
2021/09/11 02:42:29;;;;;;;19.37;17.17;;;;;;;;;;5050855;28;20408;-46
2021/09/11 02:44:54;;;;;;;18.93;17.07;;;;;;;;;;5051177;28;20464;-46
2021/09/11 02:47:20;;;;;;;24.40;18.97;;;;;;;;;;5048797;28;20520;-48
2021/09/11 02:49:46;;;;;;;20.70;18.60;;;;;;;;;;5050383;28;20406;-46
2021/09/11 02:52:12;;;;;;;20.33;18.23;;;;;;;;;;5050880;28;20771;-46
2021/09/11 02:54:38;;;;;;;22.87;20.17;;;;;;;;;;5050958;28;20398;-46
2021/09/11 02:57:04;;;;;;;20.93;18.37;;;;;;;;;;5051147;28;20442;-46
2021/09/11 02:59:30;;;;;;;29.13;20.73;;;;;;;;;;5050938;28;20487;-46
2021/09/11 03:01:56;;;;;;;30.27;21.83;;;;;;;;;;5050708;28;20489;-46
2021/09/11 03:04:22;;;;;;;27.27;21.73;;;;;;;;;;5051025;28;20435;-46
2021/09/11 03:06:48;;;;;;;34.13;24.67;;;;;;;;;;5050854;28;20376;-46
2021/09/11 03:09:14;;;;;;;35.67;24.30;;;;;;;;;;5049474;28;20523;-46
2021/09/11 03:11:40;;;;;;;36.10;27.93;;;;;;;;;;5050569;28;20885;-47
2021/09/11 03:14:06;;;;;;;31.80;25.10;;;;;;;;;;5051038;28;20872;-46
2021/09/11 03:16:32;;;;;;;39.20;27.40;;;;;;;;;;5050725;28;20451;-46
2021/09/11 03:18:58;;;;;;;46.03;28.60;;;;;;;;;;5049667;28;20374;-46
2021/09/11 03:21:24;;;;;;;44.13;28.20;;;;;;;;;;5049921;28;20935;-46
2021/09/11 03:23:50;;;;;;;37.10;26.90;;;;;;;;;;5050564;28;20456;-46
2021/09/11 03:26:16;;;;;;;35.80;26.73;;;;;;;;;;5050904;28;20434;-46
2021/09/11 03:28:42;;;;;;;40.80;27.17;;;;;;;;;;5050547;28;20417;-46
2021/09/11 03:31:08;;;;;;;44.83;25.83;;;;;;;;;;5050591;28;20407;-46
2021/09/11 03:33:34;;;;;;;40.10;27.80;;;;;;;;;;5050625;28;20871;-46
2021/09/11 03:36:00;;;;;;;41.03;28.40;;;;;;;;;;5049714;28;20426;-48
2021/09/11 03:38:26;;;;;;;40.90;25.90;;;;;;;;;;5049876;28;20437;-46
2021/09/11 03:40:51;;;;;;;45.17;26.20;;;;;;;;;;5050414;28;20450;-46
2021/09/11 03:43:17;;;;;;;39.00;28.27;;;;;;;;;;5054302;28;20526;-46
2021/09/11 03:45:43;;;;;;;42.40;28.07;;;;;;;;;;5054267;28;20406;-46
2021/09/11 03:48:09;;;;;;;39.23;26.17;;;;;;;;;;5054219;28;20896;-46
2021/09/11 03:50:35;;;;;;;44.53;29.80;;;;;;;;;;5053849;28;20396;-46
2021/09/11 03:53:01;;;;;;;45.30;29.40;;;;;;;;;;5054870;28;20372;-47
2021/09/11 03:55:27;;;;;;;45.90;28.53;;;;;;;;;;5054223;28;20999;-47
2021/09/11 03:57:53;;;;;;;39.77;27.93;;;;;;;;;;5054955;28;20432;-46
2021/09/11 04:00:19;;;;;;;42.73;27.97;;;;;;;;;;5053839;28;20395;-48
2021/09/11 04:02:45;;;;;;;42.70;28.47;;;;;;;;;;5053815;28;20417;-45
2021/09/11 04:05:11;;;;;;;47.53;29.27;;;;;;;;;;5054018;28;20394;-45
2021/09/11 04:07:37;;;;;;;50.83;29.10;;;;;;;;;;5052667;28;20500;-45
2021/09/11 04:10:03;;;;;;;41.93;28.27;;;;;;;;;;5053716;28;20384;-45
2021/09/11 04:12:29;;;;;;;46.83;29.80;;;;;;;;;;5053647;28;20401;-45
2021/09/11 04:14:55;;;;;;;50.23;31.23;;;;;;;;;;5053795;28;20901;-45
2021/09/11 04:17:21;;;;;;;40.90;28.40;;;;;;;;;;5053765;28;20396;-45
2021/09/11 04:19:47;;;;;;;45.23;29.30;;;;;;;;;;5052555;28;20409;-45
2021/09/11 04:22:13;;;;;;;39.87;28.00;;;;;;;;;;5052507;28;20417;-45
2021/09/11 04:24:39;;;;;;;43.43;28.83;;;;;;;;;;5053514;28;20464;-45
2021/09/11 04:27:05;;;;;;;43.83;28.60;;;;;;;;;;5053519;28;20504;-48
2021/09/11 04:29:31;;;;;;;45.47;30.10;;;;;;;;;;5053272;28;20467;-45
2021/09/11 04:31:57;;;;;;;49.10;27.40;;;;;;;;;;5053290;28;20400;-45
2021/09/11 04:34:23;;;;;;;43.13;26.50;;;;;;;;;;5053512;28;20860;-45
2021/09/11 04:36:49;;;;;;;45.50;30.73;;;;;;;;;;5051936;28;20449;-45
2021/09/11 04:39:15;;;;;;;44.07;27.80;;;;;;;;;;5053576;28;20417;-46
2021/09/11 04:41:41;;;;;;;41.60;26.40;;;;;;;;;;5052947;28;20433;-45
2021/09/11 04:44:07;;;;;;;46.37;27.00;;;;;;;;;;5053269;28;20876;-47
2021/09/11 04:46:33;;;;;;;51.13;27.77;;;;;;;;;;5035129;28;20786;-46
2021/09/11 04:48:59;;;;;;;48.97;29.10;;;;;;;;;;5053109;28;20402;-46
2021/09/11 04:51:24;;;;;;;49.80;30.70;;;;;;;;;;5052796;28;20396;-48
2021/09/11 04:53:52;;;;;;;48.20;28.93;;;;;;;;;;5052136;28;20462;-45
2021/09/11 04:56:19;;;;;;;49.93;30.60;;;;;;;;;;5053120;28;20408;-45
2021/09/11 04:58:45;;;;;;;48.60;30.37;;;;;;;;;;5052990;28;20819;-48
2021/09/11 05:01:11;;;;;;;54.13;28.90;;;;;;;;;;5052602;28;20430;-46
2021/09/11 05:03:37;;;;;;;52.13;28.73;;;;;;;;;;5052746;28;20448;-45
2021/09/11 05:06:03;;;;;;;54.50;28.53;;;;;;;;;;5052788;28;20738;-45
2021/09/11 05:08:29;;;;;;;40.20;25.63;;;;;;;;;;5049911;28;20449;-46
2021/09/11 05:10:55;;;;;;;45.90;26.53;;;;;;;;;;5052126;28;20405;-45
2021/09/11 05:13:21;;;;;;;42.97;26.10;;;;;;;;;;5052730;28;20864;-45
2021/09/11 05:15:47;;;;;;;41.80;26.60;;;;;;;;;;5052532;28;20364;-46
2021/09/11 05:18:12;;;;;;;47.00;27.97;;;;;;;;;;5052481;28;20399;-46
2021/09/11 05:20:38;;;;;;;42.80;28.60;;;;;;;;;;5052106;28;20404;-47
2021/09/11 05:23:04;;;;;;;40.53;26.40;;;;;;;;;;5034434;28;20606;-48
2021/09/11 05:25:30;;;;;;;32.47;23.53;;;;;;;;;;5052318;28;20912;-45
2021/09/11 05:27:56;;;;;;;32.10;21.20;;;;;;;;;;5052330;28;20903;-45
2021/09/11 05:30:22;;;;;;;29.00;20.20;;;;;;;;;;5052210;28;20393;-46
2021/09/11 05:32:48;;;;;;;26.20;18.50;;;;;;;;;;5052116;28;20381;-46
2021/09/11 05:35:14;;;;;;;30.30;18.00;;;;;;;;;;5052321;28;20380;-45
2021/09/11 05:37:40;;;;;;;25.20;17.37;;;;;;;;;;5049797;28;20558;-45
2021/09/11 05:40:07;;;;;;;22.30;16.30;;;;;;;;;;5052383;28;20887;-45
2021/09/11 05:42:36;;;;;;;23.13;16.10;;;;;;;;;;5051871;28;20908;-45
2021/09/11 05:45:02;;;;;;;22.30;16.17;;;;;;;;;;5052032;28;20412;-47
2021/09/11 05:47:28;;;;;;;22.60;14.93;;;;;;;;;;5051765;28;20440;-49
2021/09/11 05:49:54;;;;;;;21.97;15.53;;;;;;;;;;5052016;28;20393;-49
2021/09/11 05:52:20;;;;;;;17.23;13.47;;;;;;;;;;5051779;28;20431;-45
2021/09/11 05:54:46;;;;;;;19.13;13.80;;;;;;;;;;5051807;28;20375;-45
2021/09/11 05:57:12;;;;;;;17.47;12.60;;;;;;;;;;5051789;28;20416;-46
2021/09/11 05:59:38;;;;;;;17.20;12.27;;;;;;;;;;5051675;28;20405;-46
2021/09/11 06:02:04;;;;;;;14.57;11.10;;;;;;;;;;5051549;28;20452;-45
2021/09/11 06:04:30;;;;;;;13.20;11.40;;;;;;;;;;5051454;28;20456;-46
2021/09/11 06:06:56;;;;;;;14.50;10.97;;;;;;;;;;5050630;28;20454;-45
2021/09/11 06:09:22;;;;;;;13.67;11.20;;;;;;;;;;5050978;28;20396;-46
2021/09/11 06:11:48;;;;;;;12.93;11.43;;;;;;;;;;5051296;28;20427;-46
2021/09/11 06:14:14;;;;;;;11.83;10.40;;;;;;;;;;5051594;28;20453;-46
2021/09/11 06:16:40;;;;;;;11.97;10.63;;;;;;;;;;5051751;28;20798;-48
2021/09/11 06:19:06;;;;;;;15.23;10.77;;;;;;;;;;5051467;28;20389;-48
2021/09/11 06:21:32;;;;;;;17.53;12.30;;;;;;;;;;5051036;28;20521;-48
2021/09/11 06:23:58;;;;;;;15.13;11.17;;;;;;;;;;5051344;28;20534;-45
2021/09/11 06:26:24;;;;;;;14.60;10.10;;;;;;;;;;5051462;28;20401;-46
2021/09/11 06:28:50;;;;;;;12.50;11.00;;;;;;;;;;5051084;28;20433;-45
2021/09/11 06:31:16;;;;;;;12.27;9.57;;;;;;;;;;5050927;28;20482;-45
2021/09/11 06:33:42;;;;;;;11.77;10.43;;;;;;;;;;5051173;28;20915;-45
2021/09/11 06:36:11;;;;;;;13.93;8.43;;;;;;;;;;5051488;28;20459;-46
2021/09/11 06:38:37;;;;;;;9.63;8.63;;;;;;;;;;5049050;28;20548;-47
2021/09/11 06:41:03;;;;;;;8.97;8.07;;;;;;;;;;5050668;28;20465;-45
2021/09/11 06:43:29;;;;;;;7.80;7.00;;;;;;;;;;5050935;28;20432;-45
2021/09/11 06:45:55;;;;;;;7.30;6.37;;;;;;;;;;5051256;28;20412;-46
2021/09/11 06:48:21;;;;;;;7.37;6.67;;;;;;;;;;5051130;28;20793;-45
2021/09/11 06:50:47;;;;;;;8.13;6.50;;;;;;;;;;5050929;28;20766;-46
2021/09/11 06:53:13;;;;;;;7.80;6.40;;;;;;;;;;5050839;28;20901;-46
2021/09/11 06:55:39;;;;;;;8.23;6.60;;;;;;;;;;5051161;28;20873;-46
2021/09/11 06:58:05;;;;;;;8.00;5.70;;;;;;;;;;5050720;28;20429;-45
2021/09/11 07:00:31;;;;;;;7.50;5.53;;;;;;;;;;5050788;28;20918;-47
2021/09/11 07:02:57;;;;;;;5.60;5.13;;;;;;;;;;5033140;28;20906;-49
2021/09/11 07:05:23;;;;;;;5.27;4.77;;;;;;;;;;5050947;28;20406;-48
2021/09/11 07:07:49;;;;;;;5.00;4.50;;;;;;;;;;5049998;28;20453;-45
2021/09/11 07:10:15;;;;;;;11.77;4.83;;;;;;;;;;5050692;28;20409;-46
2021/09/11 07:12:41;;;;;;;5.07;4.57;;;;;;;;;;5050017;28;20403;-46
2021/09/11 07:15:07;;;;;;;8.43;5.50;;;;;;;;;;5057227;28;20434;-48
2021/09/11 07:17:33;;;;;;;7.00;4.90;;;;;;;;;;5053913;28;20410;-48
2021/09/11 07:19:59;;;;;;;7.30;5.00;;;;;;;;;;5055755;28;20484;-46
2021/09/11 07:22:25;;;;;;;9.90;4.97;;;;;;;;;;5055045;28;20394;-46
2021/09/11 07:24:51;;;;;;;5.60;5.10;;;;;;;;;;5055074;28;20497;-46
2021/09/11 07:27:17;;;;;;;4.73;4.33;;;;;;;;;;5054995;28;20419;-46
2021/09/11 07:29:44;;;;;;;5.33;4.83;;;;;;;;;;5055779;28;20808;-46
2021/09/11 07:32:09;;;;;;;8.77;5.10;;;;;;;;;;5054717;28;20406;-46
2021/09/11 07:34:35;;;;;;;5.63;5.07;;;;;;;;;;5055113;28;20775;-46
2021/09/11 07:37:01;;;;;;;8.50;5.30;;;;;;;;;;5052661;28;20470;-46
2021/09/11 07:39:27;;;;;;;4.33;4.00;;;;;;;;;;5054148;28;20469;-47
2021/09/11 07:41:53;;;;;;;9.20;4.20;;;;;;;;;;5054723;28;20403;-48
2021/09/11 07:44:19;;;;;;;8.17;4.50;;;;;;;;;;5054772;28;21039;-45
2021/09/11 07:46:45;;;;;;;4.27;3.63;;;;;;;;;;5054774;28;21087;-46
2021/09/11 07:49:11;;;;;;;6.23;3.63;;;;;;;;;;5054835;28;20433;-45
2021/09/11 07:51:37;;;;;;;3.77;3.40;;;;;;;;;;5054504;28;20408;-46
2021/09/11 07:54:03;;;;;;;3.53;3.20;;;;;;;;;;5054676;28;20406;-46
2021/09/11 07:56:29;;;;;;;5.93;4.13;;;;;;;;;;5054652;28;20401;-46
2021/09/11 07:58:55;;;;;;;5.80;4.10;;;;;;;;;;5054411;28;20844;-46
2021/09/11 08:01:21;;;;;;;4.57;4.03;;;;;;;;;;5054245;28;20412;-47
2021/09/11 08:03:47;;;;;;;6.27;4.17;;;;;;;;;;5054440;28;20544;-47
2021/09/11 08:06:13;;;;;;;4.30;3.83;;;;;;;;;;5036531;28;20794;-45
2021/09/11 08:08:39;;;;;;;7.53;4.90;;;;;;;;;;5053452;28;20860;-45
2021/09/11 08:11:08;;;;;;;5.50;4.53;;;;;;;;;;5053944;28;20433;-45
2021/09/11 08:13:34;;;;;;;10.50;5.00;;;;;;;;;;5054304;28;20428;-46
2021/09/11 08:16:00;;;;;;;8.90;4.77;;;;;;;;;;5054356;28;20464;-46
2021/09/11 08:18:26;;;;;;;7.10;5.13;;;;;;;;;;5054221;28;20426;-46
2021/09/11 08:20:53;;;;;;;5.57;4.23;;;;;;;;;;5053922;28;20419;-46
2021/09/11 08:23:19;;;;;;;7.07;4.90;;;;;;;;;;5054152;28;20451;-46
2021/09/11 08:25:45;;;;;;;7.43;4.57;;;;;;;;;;5054203;28;20404;-46
2021/09/11 08:28:15;;;;;;;5.27;3.87;;;;;;;;;;5052739;28;20433;-45
2021/09/11 08:30:41;;;;;;;6.77;3.97;;;;;;;;;;5053807;28;20899;-46
2021/09/11 08:33:07;;;;;;;8.23;3.67;;;;;;;;;;5053913;28;20879;-46
2021/09/11 08:35:33;;;;;;;6.03;3.87;;;;;;;;;;5053902;28;20438;-46
2021/09/11 08:37:59;;;;;;;4.17;3.20;;;;;;;;;;5052091;28;20462;-49
2021/09/11 08:40:25;;;;;;;8.70;2.83;;;;;;;;;;5053202;28;20940;-53
2021/09/11 08:42:51;;;;;;;2.80;2.60;;;;;;;;;;5053531;28;20401;-46
2021/09/11 08:45:17;;;;;;;10.07;3.17;;;;;;;;;;5053800;28;20443;-46
2021/09/11 08:47:47;;;;;;;2.43;2.27;;;;;;;;;;5053692;28;20424;-46
2021/09/11 08:50:14;;;;;;;4.50;2.40;;;;;;;;;;5053673;28;20393;-46
2021/09/11 08:52:44;;;;;;;3.77;2.47;;;;;;;;;;5053390;28;20514;-46
2021/09/11 08:55:11;;;;;;;2.80;2.10;;;;;;;;;;5053451;28;20405;-46
2021/09/11 08:57:37;;;;;;;4.07;2.10;;;;;;;;;;5053455;28;20998;-46
2021/09/11 09:00:05;;;;;;;1.80;1.70;;;;;;;;;;5053459;28;20455;-47
2021/09/11 09:02:31;;;;;;;6.87;2.47;;;;;;;;;;5053226;28;20889;-47
2021/09/11 09:04:59;;;;;;;2.23;2.03;;;;;;;;;;5053301;28;20826;-48
2021/09/11 09:07:29;;;;;;;2.50;1.87;;;;;;;;;;5051111;28;20499;-48
2021/09/11 09:10:04;;;;;;;2.00;1.90;;;;;;;;;;5052718;28;20866;-47
2021/09/11 09:12:31;;;;;;;3.03;2.03;;;;;;;;;;5053028;28;20424;-47
2021/09/11 09:15:02;;;;;;;2.87;1.70;;;;;;;;;;5053211;28;20492;-49
2021/09/11 09:17:43;;;;;;;1.93;1.77;;;;;;;;;;5053162;28;20483;-47
2021/09/11 09:20:10;;;;;;;3.50;1.90;;;;;;;;;;5052986;28;20982;-47
2021/09/11 09:22:36;;;;;;;4.27;2.40;;;;;;;;;;5052758;28;20437;-47
2021/09/11 09:25:02;;;;;;;2.10;2.00;;;;;;;;;;5053003;28;20517;-49
2021/09/11 09:27:28;;;;;;;3.33;2.00;;;;;;;;;;5050764;28;20424;-46
2021/09/11 09:30:00;;;;;;;4.43;2.53;;;;;;;;;;5053137;28;20490;-47
2021/09/11 09:32:46;;;;;;;2.40;2.20;;;;;;;;;;5052664;28;20832;-47
2021/09/11 09:35:22;;;;;;;2.23;2.13;;;;;;;;;;5052410;28;20936;-46
2021/09/11 09:38:05;;;;;;;3.93;2.20;;;;;;;;;;5051617;28;20801;-46
2021/09/11 09:40:32;;;;;;;2.57;1.90;;;;;;;;;;5034395;28;20821;-52
2021/09/11 09:42:58;;;;;;;2.33;2.13;;;;;;;;;;5052505;28;20495;-47
2021/09/11 09:45:31;;;;;;;2.23;2.13;;;;;;;;;;5042928;28;20521;-46
2021/09/11 09:48:10;;;;;;;3.00;2.30;;;;;;;;;;5032753;28;20422;-46
2021/09/11 09:50:45;;;;;;;4.10;2.50;;;;;;;;;;5032470;28;20496;-47
2021/09/11 09:53:13;;;;;;;2.63;2.07;;;;;;;;;;5038798;28;20508;-47
2021/09/11 09:55:42;;;;;;;6.30;2.00;;;;;;;;;;5049277;28;20433;-47
2021/09/11 09:58:08;;;;;;;2.93;2.17;;;;;;;;;;5039687;28;21119;-46
2021/09/11 10:00:34;;;;;;;2.43;2.27;;;;;;;;;;5052250;28;20409;-51
2021/09/11 10:03:00;;;;;;;3.80;2.30;;;;;;;;;;5041502;28;20496;-46
2021/09/11 10:05:29;;;;;;;4.60;2.30;;;;;;;;;;5020788;28;20424;-46
2021/09/11 10:08:06;;;;;;;3.47;2.10;;;;;;;;;;5052050;28;20417;-46
2021/09/11 10:10:34;;;;;;;2.17;2.07;;;;;;;;;;5052322;28;20450;-47
2021/09/11 10:13:07;;;;;;;2.33;2.13;;;;;;;;;;5028526;28;20940;-47
2021/09/11 10:15:35;;;;;;;6.70;2.40;;;;;;;;;;5072151;28;20490;-47
2021/09/11 10:18:01;;;;;;;2.70;2.27;;;;;;;;;;5062586;28;20503;-47
2021/09/11 10:20:28;;;;;;;3.37;2.10;;;;;;;;;;5060391;28;20896;-47
2021/09/11 10:23:08;;;;;;;3.27;2.40;;;;;;;;;;5071696;28;20404;-47
2021/09/11 10:25:47;;;;;;;3.50;2.37;;;;;;;;;;5053645;28;20416;-47
2021/09/11 10:28:17;;;;;;;4.07;2.40;;;;;;;;;;5051917;28;20460;-47
2021/09/11 10:31:02;;;;;;;3.33;3.03;;;;;;;;;;5051665;28;20406;-47
2021/09/11 10:33:46;;;;;;;3.13;2.90;;;;;;;;;;5034398;28;20460;-47
2021/09/11 10:36:15;;;;;;;3.43;3.20;;;;;;;;;;5031933;28;20398;-47
2021/09/11 10:38:41;;;;;;;3.27;3.07;;;;;;;;;;5031767;28;20449;-47
2021/09/11 10:41:10;;;;;;;2.50;2.30;;;;;;;;;;5031678;28;20398;-48
2021/09/11 10:43:36;;;;;;;3.33;2.70;;;;;;;;;;5031742;28;20464;-47
2021/09/11 10:46:07;;;;;;;2.47;2.27;;;;;;;;;;5031887;28;20422;-47
2021/09/11 10:48:44;;;;;;;5.07;2.43;;;;;;;;;;5044504;28;20432;-47
2021/09/11 10:51:10;;;;;;;2.77;2.40;;;;;;;;;;5050752;28;20405;-47
2021/09/11 10:53:36;;;;;;;2.53;2.37;;;;;;;;;;5051642;28;20405;-49
2021/09/11 10:56:21;;;;;;;2.47;2.20;;;;;;;;;;5033633;28;20409;-49
2021/09/11 10:59:07;;;;;;;2.40;2.20;;;;;;;;;;5051502;28;20858;-47
2021/09/11 11:01:52;;;;;;;4.70;2.17;;;;;;;;;;5051187;28;20880;-47
2021/09/11 11:04:22;;;;;;;3.00;2.80;;;;;;;;;;5049629;28;20960;-47
2021/09/11 11:06:51;;;;;;;2.40;2.30;;;;;;;;;;5051356;28;20409;-47
2021/09/11 11:09:18;;;;;;;5.63;3.20;;;;;;;;;;5051483;28;20440;-47
2021/09/11 11:11:44;;;;;;;3.80;2.47;;;;;;;;;;5051247;28;20807;-47
2021/09/11 11:14:10;;;;;;;4.37;2.13;;;;;;;;;;5051348;28;20437;-47
2021/09/11 11:16:47;;;;;;;2.33;2.13;;;;;;;;;;5051393;28;20413;-47
2021/09/11 11:19:20;;;;;;;2.67;2.13;;;;;;;;;;5049748;28;20971;-47
2021/09/11 11:22:00;;;;;;;2.33;2.13;;;;;;;;;;5051139;28;20429;-46
2021/09/11 11:24:34;;;;;;;2.77;2.47;;;;;;;;;;5051404;28;20947;-47
2021/09/11 11:27:02;;;;;;;4.57;2.93;;;;;;;;;;5051383;28;20427;-47
2021/09/11 11:29:28;;;;;;;2.87;2.60;;;;;;;;;;5051393;28;20404;-47
2021/09/11 11:31:55;;;;;;;3.23;2.90;;;;;;;;;;5051157;28;20425;-47
2021/09/11 11:34:21;;;;;;;2.40;2.30;;;;;;;;;;5051292;28;20405;-46
2021/09/11 11:36:48;;;;;;;4.50;3.37;;;;;;;;;;5051181;28;20836;-46
2021/09/11 11:39:20;;;;;;;2.43;2.23;;;;;;;;;;5051241;28;20401;-48
2021/09/11 11:42:12;;;;;;;2.77;2.47;;;;;;;;;;5049533;28;20807;-47
2021/09/11 11:44:39;;;;;;;4.50;2.20;;;;;;;;;;5047470;28;20476;-47
2021/09/11 11:47:12;;;;;;;2.60;2.17;;;;;;;;;;5051088;28;20486;-47
2021/09/11 11:49:39;;;;;;;3.07;2.77;;;;;;;;;;5051243;28;20394;-47
2021/09/11 11:52:06;;;;;;;4.53;2.83;;;;;;;;;;5050846;28;20405;-47
2021/09/11 11:54:34;;;;;;;2.70;2.50;;;;;;;;;;5051161;28;20839;-49
2021/09/11 11:57:08;;;;;;;3.70;3.10;;;;;;;;;;5051042;28;20432;-47
2021/09/11 11:59:34;;;;;;;9.50;7.03;;;;;;;;;;5051057;28;20416;-47
2021/09/11 12:02:00;;;;;;;3.80;3.50;;;;;;;;;;5050993;28;20409;-47
2021/09/11 12:04:26;;;;;;;3.40;3.13;;;;;;;;;;5054500;28;20466;-46
2021/09/11 12:06:52;;;;;;;5.77;2.97;;;;;;;;;;5052709;28;20440;-47
2021/09/11 12:09:19;;;;;;;4.50;2.97;;;;;;;;;;5054609;28;20879;-47
2021/09/11 12:11:50;;;;;;;3.43;3.13;;;;;;;;;;5054498;28;20834;-47
2021/09/11 12:14:16;;;;;;;3.87;3.57;;;;;;;;;;5054543;28;20435;-48
2021/09/11 12:16:44;;;;;;;3.80;3.20;;;;;;;;;;5054368;28;20436;-48
2021/09/11 12:19:11;;;;;;;5.20;3.70;;;;;;;;;;5054244;28;20444;-46
2021/09/11 12:21:37;;;;;;;3.13;2.93;;;;;;;;;;5054006;28;20408;-47
2021/09/11 12:24:03;;;;;;;5.10;3.10;;;;;;;;;;5054237;28;20460;-47
2021/09/11 12:26:30;;;;;;;3.40;3.10;;;;;;;;;;5054217;28;20401;-48
2021/09/11 12:29:04;;;;;;;4.10;2.77;;;;;;;;;;5054075;28;20913;-47
2021/09/11 12:31:33;;;;;;;2.77;2.57;;;;;;;;;;5053902;28;20393;-47
2021/09/11 12:34:04;;;;;;;4.40;2.60;;;;;;;;;;5054017;28;20854;-49
2021/09/11 12:36:40;;;;;;;4.30;3.40;;;;;;;;;;5052208;28;20518;-47
2021/09/11 12:39:15;;;;;;;3.63;3.33;;;;;;;;;;5054026;28;20415;-47
2021/09/11 12:41:41;;;;;;;4.00;3.53;;;;;;;;;;5053644;28;20393;-47
2021/09/11 12:44:08;;;;;;;3.93;3.10;;;;;;;;;;5053772;28;20492;-47
2021/09/11 12:46:40;;;;;;;5.63;3.03;;;;;;;;;;5053721;28;20897;-48
2021/09/11 12:49:10;;;;;;;4.73;3.20;;;;;;;;;;5053711;28;20405;-47
2021/09/11 12:51:38;;;;;;;4.10;3.30;;;;;;;;;;5053527;28;20404;-47
2021/09/11 12:54:04;;;;;;;3.80;3.33;;;;;;;;;;5051194;28;20445;-47
2021/09/11 12:56:31;;;;;;;4.20;2.77;;;;;;;;;;5053661;28;20774;-47
2021/09/11 12:58:59;;;;;;;3.97;2.70;;;;;;;;;;5052500;28;20811;-47
2021/09/11 13:01:26;;;;;;;9.30;3.53;;;;;;;;;;5053214;28;20407;-47
2021/09/11 13:03:52;;;;;;;6.07;3.40;;;;;;;;;;5053394;28;20819;-47
2021/09/11 13:06:19;;;;;;;3.50;3.07;;;;;;;;;;5051653;28;20400;-47
2021/09/11 13:08:45;;;;;;;6.03;3.57;;;;;;;;;;5053286;28;20418;-47
2021/09/11 13:11:12;;;;;;;3.03;2.83;;;;;;;;;;5053135;28;20398;-48
2021/09/11 13:13:38;;;;;;;3.70;3.40;;;;;;;;;;5052893;28;20412;-49
2021/09/11 13:16:04;;;;;;;3.77;3.27;;;;;;;;;;5052964;28;20437;-47
2021/09/11 13:18:31;;;;;;;4.37;3.43;;;;;;;;;;5053115;28;20427;-49
2021/09/11 13:20:58;;;;;;;3.87;3.63;;;;;;;;;;5052814;28;20784;-48
2021/09/11 13:23:27;;;;;;;6.10;3.53;;;;;;;;;;5053068;28;21139;-47
2021/09/11 13:25:54;;;;;;;6.60;3.97;;;;;;;;;;5052976;28;20496;-47
2021/09/11 13:28:20;;;;;;;4.30;3.33;;;;;;;;;;5052995;28;20488;-47
2021/09/11 13:30:46;;;;;;;4.43;4.03;;;;;;;;;;5052873;28;20817;-47
2021/09/11 13:33:11;;;;;;;3.47;3.17;;;;;;;;;;5052568;28;20463;-48
2021/09/11 13:35:38;;;;;;;4.60;4.23;;;;;;;;;;5049933;28;20508;-49
2021/09/11 13:38:04;;;;;;;4.50;3.73;;;;;;;;;;5032747;28;21059;-49
2021/09/11 13:40:30;;;;;;;3.97;3.67;;;;;;;;;;5032708;28;20452;-48
2021/09/11 13:42:56;;;;;;;3.40;3.10;;;;;;;;;;5032456;28;20410;-48
2021/09/11 13:45:23;;;;;;;4.20;3.90;;;;;;;;;;5032797;28;20409;-48
2021/09/11 13:47:51;;;;;;;4.40;4.00;;;;;;;;;;5032326;28;20422;-47
2021/09/11 13:50:18;;;;;;;3.93;3.63;;;;;;;;;;5030891;28;20402;-47
2021/09/11 13:52:43;;;;;;;5.07;3.50;;;;;;;;;;5030982;28;20879;-47
2021/09/11 13:55:10;;;;;;;3.60;3.30;;;;;;;;;;5031884;28;20423;-47
2021/09/11 13:57:36;;;;;;;4.90;4.00;;;;;;;;;;5032469;28;20426;-47
2021/09/11 14:00:03;;;;;;;4.43;4.00;;;;;;;;;;5032438;28;20874;-47
2021/09/11 14:02:29;;;;;;;4.20;3.60;;;;;;;;;;5032193;28;20381;-47
2021/09/11 14:04:55;;;;;;;4.13;3.87;;;;;;;;;;5032314;28;20536;-47
2021/09/11 14:07:21;;;;;;;4.10;3.50;;;;;;;;;;5033290;28;21004;-47
2021/09/11 14:09:47;;;;;;;4.90;3.87;;;;;;;;;;5032223;28;20415;-47
2021/09/11 14:12:13;;;;;;;5.90;4.20;;;;;;;;;;5032071;28;20399;-47
2021/09/11 14:14:39;;;;;;;4.40;4.03;;;;;;;;;;5032253;28;20414;-47
2021/09/11 14:17:06;;;;;;;4.60;3.93;;;;;;;;;;5032104;28;20451;-49
2021/09/11 14:19:32;;;;;;;3.60;3.40;;;;;;;;;;5032241;28;20477;-47
2021/09/11 14:21:58;;;;;;;4.30;3.70;;;;;;;;;;5031919;28;20961;-47
2021/09/11 14:24:24;;;;;;;4.67;4.17;;;;;;;;;;5031916;28;20458;-47
2021/09/11 14:26:51;;;;;;;5.50;4.20;;;;;;;;;;5031062;28;20435;-47
2021/09/11 14:29:19;;;;;;;6.27;5.60;;;;;;;;;;5032017;28;20399;-47
2021/09/11 14:31:46;;;;;;;4.83;4.20;;;;;;;;;;5031821;28;20459;-47
2021/09/11 14:34:12;;;;;;;5.50;4.50;;;;;;;;;;5031951;28;20411;-47
2021/09/11 14:36:38;;;;;;;7.50;4.50;;;;;;;;;;5044446;28;20421;-47